createdAt,value
2016-11-05T00:00:52.116Z,835.74
2016-11-05T00:01:52.105Z,836.17
2016-11-05T00:02:52.096Z,836.08
2016-11-05T00:03:52.129Z,835.8
2016-11-05T00:04:52.208Z,836.02
2016-11-05T00:05:53.058Z,835.83
2016-11-05T00:06:52.110Z,835.4
2016-11-05T00:07:53.270Z,835.19
2016-11-05T00:08:52.130Z,834.94
2016-11-05T00:09:52.130Z,834.33
2016-11-05T00:10:52.119Z,834.08
2016-11-05T00:11:52.157Z,833.62
2016-11-05T00:12:52.200Z,833.48
2016-11-05T00:13:52.117Z,833.77
2016-11-05T00:14:52.120Z,833
2016-11-05T00:15:52.143Z,832.71
2016-11-05T00:16:52.140Z,832.65
2016-11-05T00:17:52.124Z,832.81
2016-11-05T00:18:52.256Z,832.47
2016-11-05T00:19:52.136Z,831.91
2016-11-05T00:20:52.128Z,832.23
2016-11-05T00:21:52.122Z,832.49
2016-11-05T00:22:52.125Z,832.44
2016-11-05T00:23:52.194Z,832.77
2016-11-05T00:24:52.132Z,832.34
2016-11-05T00:25:52.138Z,832.64
2016-11-05T00:26:52.124Z,832.72
2016-11-05T00:27:52.153Z,832.97
2016-11-05T00:28:52.141Z,832.21
2016-11-05T00:29:52.143Z,832.74
2016-11-05T00:30:52.151Z,832.69
2016-11-05T00:31:52.712Z,832.43
2016-11-05T00:32:52.149Z,833.74
2016-11-05T00:33:52.156Z,833.72
2016-11-05T00:34:52.150Z,833.93
2016-11-05T00:35:52.150Z,834.21
2016-11-05T00:36:52.143Z,834.45
2016-11-05T00:37:52.141Z,834.84
2016-11-05T00:38:52.163Z,834.77
2016-11-05T00:39:52.137Z,835.33
2016-11-05T00:40:52.159Z,835.65
2016-11-05T00:41:52.156Z,835.61
2016-11-05T00:42:52.139Z,836.22
2016-11-05T00:43:52.167Z,836.97
2016-11-05T00:44:52.186Z,836.5
2016-11-05T00:45:52.153Z,837.33
2016-11-05T00:46:52.147Z,837.19
2016-11-05T00:47:52.143Z,837.62
2016-11-05T00:48:52.986Z,837.45
2016-11-05T00:49:53.161Z,837.76
2016-11-05T00:50:52.180Z,837.73
2016-11-05T00:51:52.169Z,839.04
2016-11-05T00:52:52.150Z,838.85
2016-11-05T00:53:52.183Z,838.83
2016-11-05T00:54:52.202Z,838.97
2016-11-05T00:55:52.231Z,839.12
2016-11-05T00:56:52.153Z,839.34
2016-11-05T00:57:52.166Z,839.01
2016-11-05T00:58:52.174Z,839.47
2016-11-05T00:59:52.233Z,839.97
2016-11-05T01:00:52.152Z,839.67
2016-11-05T01:01:52.148Z,839.82
2016-11-05T01:02:52.159Z,840.23
2016-11-05T01:03:53.293Z,840.47
2016-11-05T01:04:52.160Z,840.37
2016-11-05T01:05:52.170Z,840.35
2016-11-05T01:06:52.168Z,841.03
2016-11-05T01:07:52.176Z,841.57
2016-11-05T01:08:52.199Z,841.58
2016-11-05T01:09:52.177Z,841.87
2016-11-05T01:10:52.319Z,842.27
2016-11-05T01:11:52.176Z,842.36
2016-11-05T01:12:52.208Z,842.68
2016-11-05T01:13:52.185Z,842.85
2016-11-05T01:14:52.179Z,843.2
2016-11-05T01:15:52.183Z,843.34
2016-11-05T01:16:52.173Z,843.33
2016-11-05T01:17:52.173Z,843.17
2016-11-05T01:18:52.186Z,843.7
2016-11-05T01:19:52.176Z,842.96
2016-11-05T01:20:52.193Z,843.07
2016-11-05T01:21:52.186Z,842.93
2016-11-05T01:22:52.193Z,843.02
2016-11-05T01:23:52.194Z,842.93
2016-11-05T01:24:52.185Z,843.01
2016-11-05T01:25:52.196Z,843.2
2016-11-05T01:26:52.203Z,842.53
2016-11-05T01:27:52.195Z,842.5
2016-11-05T01:28:52.244Z,842.62
2016-11-05T01:29:52.190Z,842.43
2016-11-05T01:30:52.185Z,841.42
2016-11-05T01:31:52.183Z,841.87
2016-11-05T01:32:52.199Z,841.55
2016-11-05T01:33:52.204Z,841.22
2016-11-05T01:34:52.187Z,841.67
2016-11-05T01:35:52.187Z,840.86
2016-11-05T01:36:52.194Z,840.57
2016-11-05T01:37:52.187Z,839.79
2016-11-05T01:38:52.214Z,839.7
2016-11-05T01:39:52.193Z,839.4
2016-11-05T01:40:52.205Z,838.62
2016-11-05T01:41:52.193Z,838.45
2016-11-05T01:42:52.202Z,837.88
2016-11-05T01:43:52.219Z,837.8
2016-11-05T01:44:52.195Z,837.53
2016-11-05T01:45:52.188Z,837.54
2016-11-05T01:46:52.190Z,837.43
2016-11-05T01:47:52.185Z,837.14
2016-11-05T01:48:52.208Z,837.23
2016-11-05T01:49:52.183Z,836.9
2016-11-05T01:50:52.198Z,836.97
2016-11-05T01:51:52.208Z,836.69
2016-11-05T01:52:52.195Z,836.22
2016-11-05T01:53:52.228Z,835.64
2016-11-05T01:54:52.203Z,835.47
2016-11-05T01:55:52.206Z,835.77
2016-11-05T01:56:52.203Z,835.05
2016-11-05T01:57:52.212Z,834.88
2016-11-05T01:58:52.218Z,834.75
2016-11-05T01:59:52.206Z,834.58
2016-11-05T02:00:52.207Z,834.44
2016-11-05T02:01:52.205Z,834.09
2016-11-05T02:02:52.221Z,835.11
2016-11-05T02:03:52.217Z,835.51
2016-11-05T02:04:52.215Z,835.46
2016-11-05T02:05:52.214Z,835.04
2016-11-05T02:06:52.205Z,834.99
2016-11-05T02:07:52.227Z,835.42
2016-11-05T02:08:52.217Z,835.59
2016-11-05T02:09:52.210Z,834.97
2016-11-05T02:10:52.217Z,835.39
2016-11-05T02:11:52.223Z,835.24
2016-11-05T02:12:52.212Z,834.69
2016-11-05T02:13:52.244Z,834.67
2016-11-05T02:14:52.210Z,833.76
2016-11-05T02:15:52.227Z,833.08
2016-11-05T02:16:52.217Z,832.47
2016-11-05T02:17:52.233Z,832.46
2016-11-05T02:18:52.239Z,831.73
2016-11-05T02:19:52.210Z,831.26
2016-11-05T02:20:52.221Z,830.58
2016-11-05T02:21:52.221Z,829.89
2016-11-05T02:22:52.225Z,830.1
2016-11-05T02:23:52.234Z,829.83
2016-11-05T02:24:52.243Z,829.4
2016-11-05T02:25:52.232Z,829.3
2016-11-05T02:26:52.227Z,828.19
2016-11-05T02:27:52.226Z,830.08
2016-11-05T02:28:52.232Z,829.55
2016-11-05T02:29:52.223Z,829.71
2016-11-05T02:30:52.220Z,830.12
2016-11-05T02:31:52.225Z,830.77
2016-11-05T02:32:52.236Z,830.3
2016-11-05T02:33:52.266Z,830.72
2016-11-05T02:34:52.242Z,830.56
2016-11-05T02:35:52.247Z,831.46
2016-11-05T02:36:52.233Z,831.27
2016-11-05T02:37:52.235Z,831.68
2016-11-05T02:38:52.247Z,832.24
2016-11-05T02:39:52.235Z,832.97
2016-11-05T02:40:52.247Z,832.36
2016-11-05T02:41:52.237Z,833.34
2016-11-05T02:42:52.239Z,834
2016-11-05T02:43:52.247Z,834.01
2016-11-05T02:44:52.227Z,833.91
2016-11-05T02:45:52.256Z,833.91
2016-11-05T02:46:52.255Z,833.53
2016-11-05T02:47:52.250Z,833.96
2016-11-05T02:48:52.269Z,834.2
2016-11-05T02:49:52.239Z,834.67
2016-11-05T02:50:52.253Z,834.42
2016-11-05T02:51:52.248Z,834.81
2016-11-05T02:52:52.238Z,834.62
2016-11-05T02:53:52.260Z,835.02
2016-11-05T02:54:52.294Z,834.81
2016-11-05T02:55:52.243Z,834.98
2016-11-05T02:56:52.264Z,835.35
2016-11-05T02:57:52.272Z,836.07
2016-11-05T02:58:52.277Z,836.23
2016-11-05T02:59:52.253Z,836.37
2016-11-05T03:00:52.244Z,836.14
2016-11-05T03:01:52.237Z,836.98
2016-11-05T03:02:52.253Z,837.28
2016-11-05T03:03:52.260Z,838
2016-11-05T03:04:52.239Z,838.01
2016-11-05T03:05:52.260Z,838.77
2016-11-05T03:06:52.256Z,838.77
2016-11-05T03:07:52.246Z,839.42
2016-11-05T03:08:52.265Z,839.23
2016-11-05T03:09:52.257Z,839.58
2016-11-05T03:10:52.253Z,839.81
2016-11-05T03:11:52.246Z,840.4
2016-11-05T03:12:52.248Z,840.49
2016-11-05T03:13:52.270Z,840.27
2016-11-05T03:14:52.256Z,840.15
2016-11-05T03:15:52.256Z,839.98
2016-11-05T03:16:52.293Z,840.78
2016-11-05T03:17:52.254Z,840.9
2016-11-05T03:18:52.286Z,841.16
2016-11-05T03:19:52.276Z,841.16
2016-11-05T03:20:52.281Z,841
2016-11-05T03:21:52.279Z,840.9
2016-11-05T03:22:52.282Z,841.02
2016-11-05T03:23:52.304Z,840.53
2016-11-05T03:24:52.280Z,841.08
2016-11-05T03:25:52.278Z,840.77
2016-11-05T03:26:52.286Z,840.66
2016-11-05T03:27:52.277Z,840.82
2016-11-05T03:28:52.298Z,840.35
2016-11-05T03:29:52.273Z,840.34
2016-11-05T03:30:52.279Z,839.99
2016-11-05T03:31:52.287Z,840.15
2016-11-05T03:32:52.274Z,840.15
2016-11-05T03:33:52.285Z,840.6
2016-11-05T03:34:52.269Z,840.18
2016-11-05T03:35:52.273Z,840.54
2016-11-05T03:36:52.286Z,840.75
2016-11-05T03:37:52.273Z,840.62
2016-11-05T03:38:52.304Z,841.02
2016-11-05T03:39:52.275Z,841.25
2016-11-05T03:40:52.264Z,841.24
2016-11-05T03:41:52.279Z,841.55
2016-11-05T03:42:52.278Z,841.25
2016-11-05T03:43:52.288Z,842.51
2016-11-05T03:44:52.280Z,841.78
2016-11-05T03:45:52.302Z,842.58
2016-11-05T03:46:52.295Z,842.83
2016-11-05T03:47:52.308Z,842.93
2016-11-05T03:48:52.322Z,843.56
2016-11-05T03:49:52.282Z,843.87
2016-11-05T03:50:52.282Z,844.21
2016-11-05T03:51:52.282Z,843.66
2016-11-05T03:52:52.288Z,843.92
2016-11-05T03:53:52.295Z,843.53
2016-11-05T03:54:52.296Z,844.23
2016-11-05T03:55:52.282Z,843.93
2016-11-05T03:56:52.301Z,844.74
2016-11-05T03:57:52.277Z,845.12
2016-11-05T03:58:52.302Z,845.73
2016-11-05T03:59:52.308Z,845.97
2016-11-05T04:00:52.292Z,845.83
2016-11-05T04:01:52.307Z,846.42
2016-11-05T04:02:52.307Z,846.37
2016-11-05T04:03:52.299Z,847.13
2016-11-05T04:04:52.295Z,846.7
2016-11-05T04:05:52.421Z,846.42
2016-11-05T04:06:52.293Z,845.97
2016-11-05T04:07:52.290Z,845.67
2016-11-05T04:08:52.307Z,845.04
2016-11-05T04:09:52.314Z,845.04
2016-11-05T04:10:52.304Z,844
2016-11-05T04:11:52.309Z,843.83
2016-11-05T04:12:52.289Z,843.26
2016-11-05T04:13:52.325Z,842.72
2016-11-05T04:14:52.285Z,842.44
2016-11-05T04:15:52.309Z,841.9
2016-11-05T04:16:52.302Z,841.18
2016-11-05T04:17:52.298Z,840.41
2016-11-05T04:18:52.316Z,840.21
2016-11-05T04:19:52.309Z,839.63
2016-11-05T04:20:52.314Z,839.14
2016-11-05T04:21:52.298Z,838.57
2016-11-05T04:22:52.311Z,838.52
2016-11-05T04:23:52.323Z,838.05
2016-11-05T04:24:52.314Z,838.03
2016-11-05T04:25:52.302Z,837.59
2016-11-05T04:26:52.311Z,837.61
2016-11-05T04:27:52.312Z,836.47
2016-11-05T04:28:52.340Z,836.49
2016-11-05T04:29:52.308Z,835.79
2016-11-05T04:30:52.314Z,835.64
2016-11-05T04:31:52.314Z,834.89
2016-11-05T04:32:52.313Z,834.6
2016-11-05T04:33:52.328Z,834
2016-11-05T04:34:52.332Z,833.56
2016-11-05T04:35:52.319Z,833.55
2016-11-05T04:36:52.321Z,833.38
2016-11-05T04:37:52.316Z,833.08
2016-11-05T04:38:52.350Z,833.08
2016-11-05T04:39:52.322Z,833.22
2016-11-05T04:40:52.319Z,832.92
2016-11-05T04:41:52.318Z,832.77
2016-11-05T04:42:52.328Z,832.48
2016-11-05T04:43:52.332Z,832.3
2016-11-05T04:44:52.324Z,832.29
2016-11-05T04:45:52.332Z,832.13
2016-11-05T04:46:52.337Z,831.88
2016-11-05T04:47:52.329Z,830.32
2016-11-05T04:48:52.337Z,829.75
2016-11-05T04:49:52.325Z,830.31
2016-11-05T04:50:52.344Z,829.55
2016-11-05T04:51:52.337Z,829.38
2016-11-05T04:52:52.334Z,828.85
2016-11-05T04:53:52.348Z,829.54
2016-11-05T04:54:52.329Z,829.11
2016-11-05T04:55:52.334Z,828.76
2016-11-05T04:56:52.326Z,828.64
2016-11-05T04:57:52.337Z,829
2016-11-05T04:58:52.811Z,828.85
2016-11-05T04:59:52.325Z,829.04
2016-11-05T05:00:52.325Z,829.24
2016-11-05T05:01:52.332Z,829.16
2016-11-05T05:02:52.338Z,829.43
2016-11-05T05:03:52.344Z,829.32
2016-11-05T05:04:52.337Z,829.7
2016-11-05T05:05:52.345Z,829.83
2016-11-05T05:06:52.348Z,829.93
2016-11-05T05:07:52.344Z,830.24
2016-11-05T05:08:52.368Z,830.78
2016-11-05T05:09:52.349Z,830.3
2016-11-05T05:10:52.343Z,830.49
2016-11-05T05:11:52.352Z,830.31
2016-11-05T05:12:52.350Z,829.87
2016-11-05T05:13:52.351Z,830.01
2016-11-05T05:14:52.358Z,829.71
2016-11-05T05:15:52.353Z,829.98
2016-11-05T05:16:52.367Z,829.5
2016-11-05T05:17:52.347Z,829.93
2016-11-05T05:18:52.349Z,829.89
2016-11-05T05:19:52.357Z,829.86
2016-11-05T05:20:52.351Z,830.28
2016-11-05T05:21:52.354Z,830.28
2016-11-05T05:22:52.365Z,830.32
2016-11-05T05:23:52.355Z,830.3
2016-11-05T05:24:52.368Z,830.61
2016-11-05T05:25:52.359Z,830.82
2016-11-05T05:26:52.351Z,830.82
2016-11-05T05:27:52.354Z,830.95
2016-11-05T05:28:52.355Z,830.53
2016-11-05T05:29:52.364Z,831.27
2016-11-05T05:30:52.355Z,830.8
2016-11-05T05:31:52.363Z,830.48
2016-11-05T05:32:52.360Z,830.31
2016-11-05T05:33:52.367Z,830.65
2016-11-05T05:34:52.349Z,830.63
2016-11-05T05:35:52.364Z,830.76
2016-11-05T05:36:52.354Z,829.96
2016-11-05T05:37:52.364Z,829.73
2016-11-05T05:38:52.462Z,829.92
2016-11-05T05:39:52.362Z,830.59
2016-11-05T05:40:52.363Z,830.19
2016-11-05T05:41:52.376Z,830.76
2016-11-05T05:42:52.389Z,831.09
2016-11-05T05:43:52.366Z,830.46
2016-11-05T05:44:52.366Z,830.74
2016-11-05T05:45:52.366Z,829.88
2016-11-05T05:46:52.380Z,829.43
2016-11-05T05:47:52.358Z,829.03
2016-11-05T05:48:52.365Z,828.2
2016-11-05T05:49:52.376Z,828.21
2016-11-05T05:50:52.384Z,828.14
2016-11-05T05:51:52.387Z,828.05
2016-11-05T05:52:52.370Z,827.93
2016-11-05T05:53:52.376Z,827.78
2016-11-05T05:54:52.386Z,827.59
2016-11-05T05:55:52.393Z,828.22
2016-11-05T05:56:52.402Z,827.48
2016-11-05T05:57:52.375Z,827.02
2016-11-05T05:58:52.381Z,826.97
2016-11-05T05:59:52.383Z,827.69
2016-11-05T06:00:52.375Z,827.26
2016-11-05T06:01:52.384Z,827.67
2016-11-05T06:02:52.386Z,826.88
2016-11-05T06:03:52.395Z,826.09
2016-11-05T06:04:52.384Z,825.83
2016-11-05T06:05:52.398Z,824.85
2016-11-05T06:06:52.408Z,824.63
2016-11-05T06:07:52.389Z,824.26
2016-11-05T06:08:52.395Z,824.32
2016-11-05T06:09:52.393Z,824.62
2016-11-05T06:10:52.388Z,824.57
2016-11-05T06:11:52.386Z,824.17
2016-11-05T06:12:52.409Z,823.5
2016-11-05T06:13:52.393Z,824.06
2016-11-05T06:14:52.392Z,823.8
2016-11-05T06:15:52.389Z,823.71
2016-11-05T06:16:52.394Z,823.75
2016-11-05T06:17:52.405Z,823.77
2016-11-05T06:18:52.392Z,823.55
2016-11-05T06:19:52.427Z,823.38
2016-11-05T06:20:52.403Z,823.82
2016-11-05T06:21:52.404Z,823.58
2016-11-05T06:22:52.391Z,824.45
2016-11-05T06:23:52.401Z,824.45
2016-11-05T06:24:52.406Z,823.97
2016-11-05T06:25:52.395Z,824.7
2016-11-05T06:26:52.405Z,824
2016-11-05T06:27:52.405Z,824.78
2016-11-05T06:28:52.431Z,825.22
2016-11-05T06:29:52.408Z,825.52
2016-11-05T06:30:52.396Z,825.7
2016-11-05T06:31:52.406Z,825.84
2016-11-05T06:32:52.430Z,825.84
2016-11-05T06:33:52.410Z,826.72
2016-11-05T06:34:52.399Z,826.97
2016-11-05T06:35:52.403Z,826.71
2016-11-05T06:36:52.412Z,827.24
2016-11-05T06:37:52.406Z,827.34
2016-11-05T06:38:52.417Z,827.52
2016-11-05T06:39:52.425Z,827.53
2016-11-05T06:40:52.424Z,827.51
2016-11-05T06:41:52.414Z,827.69
2016-11-05T06:42:53.497Z,827.49
2016-11-05T06:43:52.417Z,827.87
2016-11-05T06:44:52.412Z,827.94
2016-11-05T06:45:52.418Z,828.02
2016-11-05T06:46:52.452Z,827.51
2016-11-05T06:47:52.429Z,827.56
2016-11-05T06:48:52.438Z,827.45
2016-11-05T06:49:52.419Z,827.41
2016-11-05T06:50:52.430Z,827.07
2016-11-05T06:51:52.423Z,827.72
2016-11-05T06:52:52.416Z,827.83
2016-11-05T06:53:52.426Z,828.53
2016-11-05T06:54:52.430Z,828.15
2016-11-05T06:55:52.422Z,828.83
2016-11-05T06:56:52.444Z,829.11
2016-11-05T06:57:52.421Z,829.8
2016-11-05T06:58:52.429Z,830.41
2016-11-05T06:59:52.431Z,830.39
2016-11-05T07:00:52.424Z,830.71
2016-11-05T07:01:52.434Z,831.71
2016-11-05T07:02:52.450Z,832.33
2016-11-05T07:03:52.429Z,832.87
2016-11-05T07:04:52.435Z,833.88
2016-11-05T07:05:52.426Z,833.86
2016-11-05T07:06:52.432Z,834.31
2016-11-05T07:08:07.045Z,834.96
2016-11-05T07:08:52.441Z,835.38
2016-11-05T07:09:52.549Z,835.99
2016-11-05T07:10:52.446Z,836.73
2016-11-05T07:11:52.445Z,837.2
2016-11-05T07:12:52.435Z,837.62
2016-11-05T07:13:52.453Z,838.31
2016-11-05T07:14:52.440Z,838.73
2016-11-05T07:15:52.446Z,839.29
2016-11-05T07:16:52.448Z,840.79
2016-11-05T07:17:52.446Z,840.16
2016-11-05T07:18:52.422Z,841.82
2016-11-05T07:19:52.440Z,842.51
2016-11-05T07:20:52.446Z,843.18
2016-11-05T07:21:52.433Z,843.73
2016-11-05T07:22:52.428Z,843.87
2016-11-05T07:23:52.456Z,844.48
2016-11-05T07:24:52.439Z,844.57
2016-11-05T07:25:52.439Z,845.11
2016-11-05T07:26:52.433Z,846.08
2016-11-05T07:27:52.450Z,846.34
2016-11-05T07:28:52.446Z,847.15
2016-11-05T07:29:52.442Z,847.05
2016-11-05T07:30:52.456Z,847.28
2016-11-05T07:31:52.441Z,847.49
2016-11-05T07:32:52.462Z,848.61
2016-11-05T07:33:52.497Z,849
2016-11-05T07:34:52.446Z,849.46
2016-11-05T07:35:52.452Z,850.78
2016-11-05T07:36:52.476Z,851.38
2016-11-05T07:37:52.466Z,851.51
2016-11-05T07:38:52.452Z,852.7
2016-11-05T07:39:52.457Z,854.09
2016-11-05T07:40:52.463Z,854.23
2016-11-05T07:41:52.454Z,854.79
2016-11-05T07:42:52.460Z,855.67
2016-11-05T07:43:52.452Z,854.97
2016-11-05T07:44:52.458Z,855.65
2016-11-05T07:45:52.471Z,856.31
2016-11-05T07:46:52.455Z,857.39
2016-11-05T07:47:52.465Z,857.44
2016-11-05T07:48:52.490Z,858.1
2016-11-05T07:49:52.461Z,859.58
2016-11-05T07:50:52.471Z,860.5
2016-11-05T07:51:52.451Z,861.95
2016-11-05T07:52:52.481Z,863.17
2016-11-05T07:53:52.463Z,863.51
2016-11-05T07:54:52.463Z,864.3
2016-11-05T07:55:52.468Z,865.67
2016-11-05T07:56:52.470Z,866.21
2016-11-05T07:57:52.475Z,866.76
2016-11-05T07:58:52.469Z,867.29
2016-11-05T07:59:52.478Z,867.34
2016-11-05T08:00:52.486Z,867.44
2016-11-05T08:01:52.496Z,867.25
2016-11-05T08:02:52.500Z,867.14
2016-11-05T08:03:52.486Z,867.53
2016-11-05T08:04:52.480Z,867
2016-11-05T08:05:52.500Z,867.19
2016-11-05T08:06:52.475Z,867.36
2016-11-05T08:07:52.507Z,867.39
2016-11-05T08:08:52.472Z,868.21
2016-11-05T08:09:52.469Z,868.24
2016-11-05T08:10:52.473Z,869.06
2016-11-05T08:11:52.482Z,869.63
2016-11-05T08:12:52.491Z,869.91
2016-11-05T08:13:52.496Z,869.84
2016-11-05T08:14:52.488Z,870.92
2016-11-05T08:15:52.480Z,870.61
2016-11-05T08:16:52.488Z,871.44
2016-11-05T08:17:52.482Z,871.7
2016-11-05T08:18:52.480Z,872.45
2016-11-05T08:19:52.495Z,873.46
2016-11-05T08:20:52.474Z,873.83
2016-11-05T08:21:52.482Z,874.53
2016-11-05T08:22:52.558Z,875.03
2016-11-05T08:23:52.482Z,875.54
2016-11-05T08:24:52.495Z,875.83
2016-11-05T08:25:52.504Z,876.59
2016-11-05T08:26:52.498Z,876.53
2016-11-05T08:27:52.483Z,876
2016-11-05T08:28:52.480Z,875.77
2016-11-05T08:29:52.492Z,875.91
2016-11-05T08:30:52.491Z,876.37
2016-11-05T08:31:52.504Z,876.25
2016-11-05T08:32:52.501Z,876.67
2016-11-05T08:33:52.493Z,876.7
2016-11-05T08:34:52.966Z,876.98
2016-11-05T08:35:52.598Z,877.56
2016-11-05T08:36:52.499Z,878.09
2016-11-05T08:37:52.499Z,879.09
2016-11-05T08:38:52.527Z,878.53
2016-11-05T08:39:52.512Z,877.87
2016-11-05T08:40:52.499Z,877.85
2016-11-05T08:41:52.498Z,878.2
2016-11-05T08:42:52.495Z,879.15
2016-11-05T08:43:52.495Z,879.22
2016-11-05T08:44:52.503Z,879.41
2016-11-05T08:45:52.492Z,879.99
2016-11-05T08:46:52.508Z,879.2
2016-11-05T08:47:52.508Z,878.79
2016-11-05T08:48:52.506Z,878.79
2016-11-05T08:49:52.506Z,878.35
2016-11-05T08:50:52.564Z,879.2
2016-11-05T08:51:52.528Z,879.95
2016-11-05T08:52:52.525Z,880.45
2016-11-05T08:53:52.547Z,880.72
2016-11-05T08:54:52.518Z,880.68
2016-11-05T08:55:52.736Z,881.81
2016-11-05T08:56:52.541Z,881.94
2016-11-05T08:57:52.503Z,882.37
2016-11-05T08:58:52.528Z,883.08
2016-11-05T08:59:52.510Z,883.54
2016-11-05T09:00:52.538Z,883.34
2016-11-05T09:01:52.535Z,884.44
2016-11-05T09:02:52.524Z,885.38
2016-11-05T09:03:52.551Z,884.95
2016-11-05T09:04:52.534Z,885.58
2016-11-05T09:05:52.542Z,885.44
2016-11-05T09:06:52.540Z,886.64
2016-11-05T09:07:52.589Z,887.11
2016-11-05T09:08:52.537Z,887.91
2016-11-05T09:09:52.579Z,888.69
2016-11-05T09:10:52.582Z,889.78
2016-11-05T09:11:52.563Z,890.67
2016-11-05T09:12:52.599Z,890.78
2016-11-05T09:13:52.553Z,891.16
2016-11-05T09:14:52.546Z,891.9
2016-11-05T09:15:52.693Z,891.66
2016-11-05T09:16:52.539Z,891.68
2016-11-05T09:17:52.529Z,891.2
2016-11-05T09:18:52.704Z,891.01
2016-11-05T09:19:52.622Z,889.49
2016-11-05T09:20:52.542Z,888.82
2016-11-05T09:21:52.548Z,889.12
2016-11-05T09:22:52.553Z,889.37
2016-11-05T09:23:52.534Z,889.35
2016-11-05T09:24:52.541Z,889.08
2016-11-05T09:25:52.647Z,889.1
2016-11-05T09:26:52.536Z,890.41
2016-11-05T09:27:52.536Z,890.24
2016-11-05T09:28:52.526Z,889.89
2016-11-05T09:29:52.532Z,890.33
2016-11-05T09:30:52.523Z,890.52
2016-11-05T09:31:52.536Z,891.24
2016-11-05T09:32:52.522Z,891.42
2016-11-05T09:33:52.549Z,891.72
2016-11-05T09:34:52.536Z,892.27
2016-11-05T09:35:52.543Z,893.28
2016-11-05T09:36:52.629Z,893.37
2016-11-05T09:37:52.545Z,894.31
2016-11-05T09:38:52.564Z,894.08
2016-11-05T09:39:52.666Z,894.54
2016-11-05T09:40:52.551Z,894.56
2016-11-05T09:41:52.554Z,894.67
2016-11-05T09:42:52.549Z,894.53
2016-11-05T09:43:52.555Z,894.81
2016-11-05T09:44:52.660Z,894.43
2016-11-05T09:45:52.572Z,894.78
2016-11-05T09:46:52.581Z,895.29
2016-11-05T09:47:52.568Z,895.56
2016-11-05T09:48:52.563Z,895.8
2016-11-05T09:49:52.564Z,895.95
2016-11-05T09:50:52.551Z,895.81
2016-11-05T09:51:52.558Z,895.98
2016-11-05T09:52:52.582Z,896.88
2016-11-05T09:53:52.573Z,896.99
2016-11-05T09:54:52.563Z,897.57
2016-11-05T09:55:52.572Z,897.22
2016-11-05T09:56:52.568Z,897.89
2016-11-05T09:57:52.572Z,897.87
2016-11-05T09:58:52.588Z,898.3
2016-11-05T09:59:52.561Z,898.47
2016-11-05T10:00:52.572Z,899.25
2016-11-05T10:01:52.571Z,900.39
2016-11-05T10:02:52.569Z,899.97
2016-11-05T10:03:52.575Z,900.39
2016-11-05T10:04:52.582Z,900.85
2016-11-05T10:05:52.568Z,901.11
2016-11-05T10:06:52.575Z,900.97
2016-11-05T10:07:52.572Z,901.42
2016-11-05T10:08:52.556Z,901.26
2016-11-05T10:09:52.564Z,901.47
2016-11-05T10:10:52.568Z,901.93
2016-11-05T10:11:52.586Z,902.42
2016-11-05T10:12:52.568Z,902.55
2016-11-05T10:13:52.575Z,902.9
2016-11-05T10:14:52.569Z,903.27
2016-11-05T10:15:52.568Z,903.88
2016-11-05T10:16:52.582Z,903.34
2016-11-05T10:17:52.594Z,903.86
2016-11-05T10:18:52.584Z,904.25
2016-11-05T10:19:52.587Z,904.48
2016-11-05T10:20:52.581Z,905.35
2016-11-05T10:21:52.571Z,905.57
2016-11-05T10:22:52.575Z,906.02
2016-11-05T10:23:52.568Z,906.67
2016-11-05T10:24:52.594Z,908.78
2016-11-05T10:25:52.579Z,911.33
2016-11-05T10:26:53.589Z,914.24
2016-11-05T10:27:52.591Z,917.53
2016-11-05T10:28:52.575Z,923.33
2016-11-05T10:29:52.589Z,930.43
2016-11-05T10:30:52.578Z,937.13
2016-11-05T10:31:52.588Z,943.07
2016-11-05T10:32:53.554Z,948.94
2016-11-05T10:33:52.580Z,954.64
2016-11-05T10:34:52.572Z,960.68
2016-11-05T10:35:52.626Z,967.04
2016-11-05T10:36:52.594Z,971.85
2016-11-05T10:37:52.601Z,975.03
2016-11-05T10:38:52.592Z,978.04
2016-11-05T10:39:52.588Z,982.19
2016-11-05T10:40:52.585Z,985.44
2016-11-05T10:41:52.586Z,989.26
2016-11-05T10:42:52.596Z,992.62
2016-11-05T10:43:52.641Z,995.18
2016-11-05T10:44:52.595Z,997.49
2016-11-05T10:45:52.623Z,998.74
2016-11-05T10:46:52.598Z,999.7
2016-11-05T10:47:52.608Z,999.45
2016-11-05T10:48:52.614Z,998.99
2016-11-05T10:49:52.618Z,999.88
2016-11-05T10:50:52.602Z,1001.05
2016-11-05T10:51:52.596Z,1001.12
2016-11-05T10:52:52.623Z,1000.58
2016-11-05T10:53:52.599Z,999.34
2016-11-05T10:54:52.690Z,998.6
2016-11-05T10:55:52.601Z,997.82
2016-11-05T10:56:52.610Z,996.7
2016-11-05T10:57:52.602Z,995.61
2016-11-05T10:58:52.609Z,995.43
2016-11-05T10:59:52.595Z,995.04
2016-11-05T11:00:52.605Z,993.44
2016-11-05T11:01:52.626Z,994.01
2016-11-05T11:02:52.611Z,993.83
2016-11-05T11:03:52.638Z,995.23
2016-11-05T11:04:52.618Z,998.52
2016-11-05T11:05:52.608Z,1001.36
2016-11-05T11:06:52.619Z,1004.35
2016-11-05T11:07:52.610Z,1008.53
2016-11-05T11:08:52.602Z,1013.29
2016-11-05T11:09:52.615Z,1016.1
2016-11-05T11:10:52.617Z,1017.33
2016-11-05T11:11:52.618Z,1018.24
2016-11-05T11:12:52.620Z,1019.57
2016-11-05T11:13:52.616Z,1021.8
2016-11-05T11:14:52.769Z,1024.08
2016-11-05T11:15:52.678Z,1025.55
2016-11-05T11:16:52.710Z,1026.83
2016-11-05T11:17:52.736Z,1027.08
2016-11-05T11:18:52.624Z,1026.48
2016-11-05T11:19:52.630Z,1024.95
2016-11-05T11:20:52.622Z,1023.84
2016-11-05T11:21:52.617Z,1022.61
2016-11-05T11:22:52.631Z,1020.9
2016-11-05T11:23:52.639Z,1021.45
2016-11-05T11:24:53.174Z,1022.67
2016-11-05T11:25:52.623Z,1023.53
2016-11-05T11:26:52.669Z,1025.81
2016-11-05T11:27:52.624Z,1026.48
2016-11-05T11:28:52.631Z,1026.64
2016-11-05T11:29:52.647Z,1026.79
2016-11-05T11:30:52.631Z,1027.17
2016-11-05T11:31:52.650Z,1027.23
2016-11-05T11:32:52.632Z,1026.85
2016-11-05T11:33:52.640Z,1025.3
2016-11-05T11:34:52.631Z,1023.72
2016-11-05T11:35:52.638Z,1022.95
2016-11-05T11:36:52.631Z,1020.44
2016-11-05T11:37:52.630Z,1018.09
2016-11-05T11:38:52.659Z,1015.88
2016-11-05T11:39:52.651Z,1013.54
2016-11-05T11:40:52.656Z,1011.98
2016-11-05T11:41:52.652Z,1011.74
2016-11-05T11:42:52.636Z,1011.82
2016-11-05T11:43:52.643Z,1012.51
2016-11-05T11:44:52.828Z,1012.62
2016-11-05T11:45:52.739Z,1011.86
2016-11-05T11:46:52.664Z,1010.8
2016-11-05T11:47:52.640Z,1008.32
2016-11-05T11:48:52.667Z,1006.07
2016-11-05T11:49:52.666Z,1003.69
2016-11-05T11:50:52.662Z,1000.61
2016-11-05T11:51:52.681Z,998.38
2016-11-05T11:52:52.647Z,994.87
2016-11-05T11:53:52.652Z,992.21
2016-11-05T11:54:52.871Z,989
2016-11-05T11:55:52.659Z,986.78
2016-11-05T11:56:52.654Z,983.85
2016-11-05T11:57:52.662Z,981.45
2016-11-05T11:58:52.652Z,978.78
2016-11-05T11:59:52.686Z,976.26
2016-11-05T12:00:52.663Z,974.37
2016-11-05T12:01:52.662Z,973.62
2016-11-05T12:02:52.688Z,974.39
2016-11-05T12:03:52.674Z,976.85
2016-11-05T12:04:52.702Z,981.27
2016-11-05T12:05:52.672Z,985.6
2016-11-05T12:06:52.668Z,991.18
2016-11-05T12:07:52.684Z,996.51
2016-11-05T12:08:52.838Z,1001.39
2016-11-05T12:09:52.686Z,1005.86
2016-11-05T12:10:52.663Z,1008.88
2016-11-05T12:11:53.209Z,1011.14
2016-11-05T12:12:52.663Z,1012.64
2016-11-05T12:13:52.666Z,1015.21
2016-11-05T12:14:52.688Z,1016.86
2016-11-05T12:15:52.672Z,1019.71
2016-11-05T12:16:52.669Z,1021.05
2016-11-05T12:17:52.675Z,1022.89
2016-11-05T12:18:52.687Z,1024.21
2016-11-05T12:19:53.039Z,1025.67
2016-11-05T12:20:52.679Z,1027.06
2016-11-05T12:21:52.700Z,1028.37
2016-11-05T12:22:52.680Z,1029.29
2016-11-05T12:23:52.689Z,1030.03
2016-11-05T12:24:52.695Z,1030.65
2016-11-05T12:25:52.705Z,1031.8
2016-11-05T12:26:52.688Z,1032
2016-11-05T12:27:52.679Z,1032.77
2016-11-05T12:28:52.700Z,1033.86
2016-11-05T12:29:52.700Z,1034.44